sensor_id;sensor_type;location;lat;lon;timestamp;P1;durP1;ratioP1;P2;durP2;ratioP2
32768;SDS011;23049;54.304;8.826;2022-08-19T00:01:39;15.88;;;7.43;;
32768;SDS011;23049;54.304;8.826;2022-08-19T00:04:07;15.18;;;8.00;;
32768;SDS011;23049;54.304;8.826;2022-08-19T00:06:36;11.38;;;7.93;;
32768;SDS011;23049;54.304;8.826;2022-08-19T00:09:05;14.70;;;8.45;;
32768;SDS011;23049;54.304;8.826;2022-08-19T00:11:33;15.40;;;8.73;;
32768;SDS011;23049;54.304;8.826;2022-08-19T00:14:00;11.63;;;8.10;;
32768;SDS011;23049;54.304;8.826;2022-08-19T00:16:26;14.43;;;9.00;;
32768;SDS011;23049;54.304;8.826;2022-08-19T00:18:55;14.52;;;8.35;;
32768;SDS011;23049;54.304;8.826;2022-08-19T00:21:22;13.30;;;8.15;;
32768;SDS011;23049;54.304;8.826;2022-08-19T00:23:49;13.40;;;8.20;;
32768;SDS011;23049;54.304;8.826;2022-08-19T00:26:15;12.88;;;8.18;;
32768;SDS011;23049;54.304;8.826;2022-08-19T00:28:40;10.52;;;7.80;;
32768;SDS011;23049;54.304;8.826;2022-08-19T00:31:06;14.02;;;8.13;;
32768;SDS011;23049;54.304;8.826;2022-08-19T00:33:33;12.02;;;8.45;;
32768;SDS011;23049;54.304;8.826;2022-08-19T00:36:00;13.27;;;8.15;;
32768;SDS011;23049;54.304;8.826;2022-08-19T00:38:26;10.98;;;8.77;;
32768;SDS011;23049;54.304;8.826;2022-08-19T00:40:52;13.65;;;9.20;;
32768;SDS011;23049;54.304;8.826;2022-08-19T00:43:20;11.70;;;8.38;;
32768;SDS011;23049;54.304;8.826;2022-08-19T00:45:47;14.55;;;8.68;;
32768;SDS011;23049;54.304;8.826;2022-08-19T00:48:14;14.25;;;9.00;;
32768;SDS011;23049;54.304;8.826;2022-08-19T00:50:41;16.35;;;9.40;;
32768;SDS011;23049;54.304;8.826;2022-08-19T00:53:12;10.57;;;9.40;;
32768;SDS011;23049;54.304;8.826;2022-08-19T00:58:08;13.30;;;9.00;;
32768;SDS011;23049;54.304;8.826;2022-08-19T01:00:37;13.60;;;9.25;;
32768;SDS011;23049;54.304;8.826;2022-08-19T01:03:09;13.00;;;8.95;;
32768;SDS011;23049;54.304;8.826;2022-08-19T01:05:37;16.20;;;9.80;;
32768;SDS011;23049;54.304;8.826;2022-08-19T01:08:05;10.93;;;9.73;;
32768;SDS011;23049;54.304;8.826;2022-08-19T01:10:33;16.67;;;10.73;;
32768;SDS011;23049;54.304;8.826;2022-08-19T01:13:02;14.50;;;11.95;;
32768;SDS011;23049;54.304;8.826;2022-08-19T01:15:30;16.30;;;10.90;;
32768;SDS011;23049;54.304;8.826;2022-08-19T01:18:00;15.27;;;10.55;;
32768;SDS011;23049;54.304;8.826;2022-08-19T01:20:35;17.50;;;11.07;;
32768;SDS011;23049;54.304;8.826;2022-08-19T01:23:03;15.82;;;11.50;;
32768;SDS011;23049;54.304;8.826;2022-08-19T01:25:39;14.32;;;11.18;;
32768;SDS011;23049;54.304;8.826;2022-08-19T01:28:15;16.95;;;11.10;;
32768;SDS011;23049;54.304;8.826;2022-08-19T01:30:43;17.17;;;11.30;;
32768;SDS011;23049;54.304;8.826;2022-08-19T01:33:09;14.90;;;11.35;;
32768;SDS011;23049;54.304;8.826;2022-08-19T01:35:35;14.07;;;10.80;;
32768;SDS011;23049;54.304;8.826;2022-08-19T01:38:06;15.20;;;11.02;;
32768;SDS011;23049;54.304;8.826;2022-08-19T01:40:36;15.98;;;11.75;;
32768;SDS011;23049;54.304;8.826;2022-08-19T01:43:04;14.88;;;10.60;;
32768;SDS011;23049;54.304;8.826;2022-08-19T01:45:32;17.40;;;11.45;;
32768;SDS011;23049;54.304;8.826;2022-08-19T01:47:59;12.27;;;10.40;;
32768;SDS011;23049;54.304;8.826;2022-08-19T01:50:25;19.23;;;11.48;;
32768;SDS011;23049;54.304;8.826;2022-08-19T01:52:52;17.02;;;11.75;;
32768;SDS011;23049;54.304;8.826;2022-08-19T01:55:19;16.63;;;10.98;;
32768;SDS011;23049;54.304;8.826;2022-08-19T01:57:50;14.25;;;11.70;;
32768;SDS011;23049;54.304;8.826;2022-08-19T02:00:20;14.77;;;11.32;;
32768;SDS011;23049;54.304;8.826;2022-08-19T02:02:48;17.63;;;11.98;;
32768;SDS011;23049;54.304;8.826;2022-08-19T02:05:14;19.13;;;12.13;;
32768;SDS011;23049;54.304;8.826;2022-08-19T02:07:45;18.17;;;12.55;;
32768;SDS011;23049;54.304;8.826;2022-08-19T02:10:12;16.23;;;11.90;;
32768;SDS011;23049;54.304;8.826;2022-08-19T02:12:46;16.00;;;12.10;;
32768;SDS011;23049;54.304;8.826;2022-08-19T02:15:14;15.70;;;11.10;;
32768;SDS011;23049;54.304;8.826;2022-08-19T02:17:40;13.05;;;10.27;;
32768;SDS011;23049;54.304;8.826;2022-08-19T02:20:06;12.73;;;9.82;;
32768;SDS011;23049;54.304;8.826;2022-08-19T02:22:32;14.55;;;9.82;;
32768;SDS011;23049;54.304;8.826;2022-08-19T02:25:00;16.35;;;11.13;;
32768;SDS011;23049;54.304;8.826;2022-08-19T02:27:25;17.02;;;11.15;;
32768;SDS011;23049;54.304;8.826;2022-08-19T02:29:51;20.80;;;12.63;;
32768;SDS011;23049;54.304;8.826;2022-08-19T02:32:17;17.25;;;12.05;;
32768;SDS011;23049;54.304;8.826;2022-08-19T02:34:44;20.05;;;12.52;;
32768;SDS011;23049;54.304;8.826;2022-08-19T02:37:11;29.90;;;13.57;;
32768;SDS011;23049;54.304;8.826;2022-08-19T02:39:57;24.58;;;12.90;;
32768;SDS011;23049;54.304;8.826;2022-08-19T02:42:23;16.30;;;10.75;;
32768;SDS011;23049;54.304;8.826;2022-08-19T02:44:48;15.80;;;11.40;;
32768;SDS011;23049;54.304;8.826;2022-08-19T02:47:14;18.20;;;11.45;;
32768;SDS011;23049;54.304;8.826;2022-08-19T02:49:40;14.63;;;11.63;;
32768;SDS011;23049;54.304;8.826;2022-08-19T02:54:21;14.80;;;11.27;;
32768;SDS011;23049;54.304;8.826;2022-08-19T02:56:47;17.33;;;11.80;;
32768;SDS011;23049;54.304;8.826;2022-08-19T02:59:12;17.05;;;12.32;;
32768;SDS011;23049;54.304;8.826;2022-08-19T03:01:38;21.35;;;12.88;;
32768;SDS011;23049;54.304;8.826;2022-08-19T03:04:06;17.00;;;12.52;;
32768;SDS011;23049;54.304;8.826;2022-08-19T03:06:35;18.05;;;12.80;;
32768;SDS011;23049;54.304;8.826;2022-08-19T03:09:02;17.40;;;12.52;;
32768;SDS011;23049;54.304;8.826;2022-08-19T03:11:30;16.20;;;11.65;;
32768;SDS011;23049;54.304;8.826;2022-08-19T03:13:57;21.25;;;13.57;;
32768;SDS011;23049;54.304;8.826;2022-08-19T03:16:24;16.65;;;13.20;;
32768;SDS011;23049;54.304;8.826;2022-08-19T03:18:51;20.10;;;13.43;;
32768;SDS011;23049;54.304;8.826;2022-08-19T03:21:22;20.42;;;13.07;;
32768;SDS011;23049;54.304;8.826;2022-08-19T03:23:50;19.15;;;14.18;;
32768;SDS011;23049;54.304;8.826;2022-08-19T03:26:19;27.23;;;15.00;;
32768;SDS011;23049;54.304;8.826;2022-08-19T03:28:44;17.05;;;13.05;;
32768;SDS011;23049;54.304;8.826;2022-08-19T03:31:15;18.55;;;14.25;;
32768;SDS011;23049;54.304;8.826;2022-08-19T03:33:43;19.88;;;14.10;;
32768;SDS011;23049;54.304;8.826;2022-08-19T03:36:11;17.83;;;13.45;;
32768;SDS011;23049;54.304;8.826;2022-08-19T03:38:40;22.38;;;15.02;;
32768;SDS011;23049;54.304;8.826;2022-08-19T03:41:15;21.38;;;15.65;;
32768;SDS011;23049;54.304;8.826;2022-08-19T03:43:45;25.90;;;16.02;;
32768;SDS011;23049;54.304;8.826;2022-08-19T03:46:13;20.13;;;15.38;;
32768;SDS011;23049;54.304;8.826;2022-08-19T03:48:41;22.90;;;16.42;;
32768;SDS011;23049;54.304;8.826;2022-08-19T03:51:08;22.95;;;17.17;;
32768;SDS011;23049;54.304;8.826;2022-08-19T03:53:45;23.88;;;16.05;;
32768;SDS011;23049;54.304;8.826;2022-08-19T03:56:11;28.38;;;17.38;;
32768;SDS011;23049;54.304;8.826;2022-08-19T03:58:38;23.65;;;16.77;;
32768;SDS011;23049;54.304;8.826;2022-08-19T04:01:07;23.45;;;17.48;;
32768;SDS011;23049;54.304;8.826;2022-08-19T04:03:42;23.33;;;17.50;;
32768;SDS011;23049;54.304;8.826;2022-08-19T04:06:18;28.42;;;17.65;;
32768;SDS011;23049;54.304;8.826;2022-08-19T04:08:47;24.52;;;18.02;;
32768;SDS011;23049;54.304;8.826;2022-08-19T04:11:16;25.33;;;17.80;;
32768;SDS011;23049;54.304;8.826;2022-08-19T04:13:44;24.23;;;17.55;;
32768;SDS011;23049;54.304;8.826;2022-08-19T04:16:10;21.75;;;16.70;;
32768;SDS011;23049;54.304;8.826;2022-08-19T04:18:37;23.40;;;16.15;;
32768;SDS011;23049;54.304;8.826;2022-08-19T04:21:04;21.58;;;15.05;;
32768;SDS011;23049;54.304;8.826;2022-08-19T04:23:31;19.33;;;14.27;;
32768;SDS011;23049;54.304;8.826;2022-08-19T04:25:57;22.38;;;13.98;;
32768;SDS011;23049;54.304;8.826;2022-08-19T04:28:25;17.50;;;13.13;;
32768;SDS011;23049;54.304;8.826;2022-08-19T04:30:52;16.77;;;13.52;;
32768;SDS011;23049;54.304;8.826;2022-08-19T04:33:20;17.52;;;12.85;;
32768;SDS011;23049;54.304;8.826;2022-08-19T04:35:49;16.90;;;12.60;;
32768;SDS011;23049;54.304;8.826;2022-08-19T04:38:16;18.13;;;12.90;;
32768;SDS011;23049;54.304;8.826;2022-08-19T04:40:44;23.13;;;13.07;;
32768;SDS011;23049;54.304;8.826;2022-08-19T04:43:31;22.10;;;13.15;;
32768;SDS011;23049;54.304;8.826;2022-08-19T04:45:58;16.33;;;12.18;;
32768;SDS011;23049;54.304;8.826;2022-08-19T04:48:29;22.38;;;13.85;;
32768;SDS011;23049;54.304;8.826;2022-08-19T04:50:55;18.10;;;13.82;;
32768;SDS011;23049;54.304;8.826;2022-08-19T04:53:25;23.63;;;13.90;;
32768;SDS011;23049;54.304;8.826;2022-08-19T04:55:53;20.77;;;12.70;;
32768;SDS011;23049;54.304;8.826;2022-08-19T04:58:21;22.20;;;13.80;;
32768;SDS011;23049;54.304;8.826;2022-08-19T05:00:47;19.13;;;13.50;;
32768;SDS011;23049;54.304;8.826;2022-08-19T05:03:12;21.63;;;13.02;;
32768;SDS011;23049;54.304;8.826;2022-08-19T05:05:42;20.73;;;13.50;;
32768;SDS011;23049;54.304;8.826;2022-08-19T05:08:08;20.23;;;12.35;;
32768;SDS011;23049;54.304;8.826;2022-08-19T05:10:35;16.77;;;12.73;;
32768;SDS011;23049;54.304;8.826;2022-08-19T05:13:02;17.67;;;13.18;;
32768;SDS011;23049;54.304;8.826;2022-08-19T05:15:28;18.95;;;11.73;;
32768;SDS011;23049;54.304;8.826;2022-08-19T05:17:54;16.98;;;12.15;;
32768;SDS011;23049;54.304;8.826;2022-08-19T05:20:46;18.33;;;11.55;;
32768;SDS011;23049;54.304;8.826;2022-08-19T05:23:31;15.93;;;10.77;;
32768;SDS011;23049;54.304;8.826;2022-08-19T05:25:56;16.85;;;12.10;;
32768;SDS011;23049;54.304;8.826;2022-08-19T05:28:22;13.95;;;10.95;;
32768;SDS011;23049;54.304;8.826;2022-08-19T05:30:47;21.92;;;10.70;;
32768;SDS011;23049;54.304;8.826;2022-08-19T05:33:15;15.50;;;10.05;;
32768;SDS011;23049;54.304;8.826;2022-08-19T05:35:41;14.57;;;10.35;;
32768;SDS011;23049;54.304;8.826;2022-08-19T05:38:08;14.50;;;10.27;;
32768;SDS011;23049;54.304;8.826;2022-08-19T05:40:36;13.27;;;9.73;;
32768;SDS011;23049;54.304;8.826;2022-08-19T05:43:04;13.18;;;9.75;;
32768;SDS011;23049;54.304;8.826;2022-08-19T05:45:31;13.48;;;9.73;;
32768;SDS011;23049;54.304;8.826;2022-08-19T05:48:02;14.00;;;10.25;;
32768;SDS011;23049;54.304;8.826;2022-08-19T05:50:28;17.92;;;10.20;;
32768;SDS011;23049;54.304;8.826;2022-08-19T05:52:54;15.60;;;10.43;;
32768;SDS011;23049;54.304;8.826;2022-08-19T05:55:20;14.90;;;10.05;;
32768;SDS011;23049;54.304;8.826;2022-08-19T05:57:47;15.57;;;10.02;;
32768;SDS011;23049;54.304;8.826;2022-08-19T06:00:12;15.60;;;10.02;;
32768;SDS011;23049;54.304;8.826;2022-08-19T06:02:39;15.00;;;10.35;;
32768;SDS011;23049;54.304;8.826;2022-08-19T06:05:05;15.85;;;10.75;;
32768;SDS011;23049;54.304;8.826;2022-08-19T06:07:34;18.10;;;9.73;;
32768;SDS011;23049;54.304;8.826;2022-08-19T06:10:01;14.98;;;10.10;;
32768;SDS011;23049;54.304;8.826;2022-08-19T06:12:33;14.73;;;10.38;;
32768;SDS011;23049;54.304;8.826;2022-08-19T06:15:01;13.65;;;9.95;;
32768;SDS011;23049;54.304;8.826;2022-08-19T06:17:29;19.02;;;10.30;;
32768;SDS011;23049;54.304;8.826;2022-08-19T06:19:55;15.25;;;9.65;;
32768;SDS011;23049;54.304;8.826;2022-08-19T06:22:21;14.20;;;9.77;;
32768;SDS011;23049;54.304;8.826;2022-08-19T06:24:46;14.93;;;8.00;;
32768;SDS011;23049;54.304;8.826;2022-08-19T06:27:12;13.68;;;8.50;;
32768;SDS011;23049;54.304;8.826;2022-08-19T06:29:38;12.90;;;8.63;;
32768;SDS011;23049;54.304;8.826;2022-08-19T06:32:04;11.77;;;7.93;;
32768;SDS011;23049;54.304;8.826;2022-08-19T06:34:30;12.10;;;7.78;;
32768;SDS011;23049;54.304;8.826;2022-08-19T06:36:58;10.82;;;8.35;;
32768;SDS011;23049;54.304;8.826;2022-08-19T06:39:26;10.90;;;7.95;;
32768;SDS011;23049;54.304;8.826;2022-08-19T06:41:59;10.00;;;7.80;;
32768;SDS011;23049;54.304;8.826;2022-08-19T06:44:27;14.40;;;8.20;;
32768;SDS011;23049;54.304;8.826;2022-08-19T06:47:01;12.45;;;8.48;;
32768;SDS011;23049;54.304;8.826;2022-08-19T06:49:31;16.97;;;8.47;;
32768;SDS011;23049;54.304;8.826;2022-08-19T06:51:57;11.57;;;7.88;;
32768;SDS011;23049;54.304;8.826;2022-08-19T06:54:24;10.88;;;7.63;;
32768;SDS011;23049;54.304;8.826;2022-08-19T06:56:51;11.02;;;8.05;;
32768;SDS011;23049;54.304;8.826;2022-08-19T06:59:20;13.00;;;7.15;;
32768;SDS011;23049;54.304;8.826;2022-08-19T07:01:48;11.80;;;7.63;;
32768;SDS011;23049;54.304;8.826;2022-08-19T07:04:18;11.48;;;7.78;;
32768;SDS011;23049;54.304;8.826;2022-08-19T07:06:45;12.10;;;7.90;;
32768;SDS011;23049;54.304;8.826;2022-08-19T07:09:12;17.88;;;8.80;;
32768;SDS011;23049;54.304;8.826;2022-08-19T07:11:43;16.67;;;7.75;;
32768;SDS011;23049;54.304;8.826;2022-08-19T07:14:10;15.57;;;7.40;;
32768;SDS011;23049;54.304;8.826;2022-08-19T07:16:35;15.25;;;6.75;;
32768;SDS011;23049;54.304;8.826;2022-08-19T07:19:01;17.30;;;8.50;;
32768;SDS011;23049;54.304;8.826;2022-08-19T07:21:27;15.20;;;7.68;;
32768;SDS011;23049;54.304;8.826;2022-08-19T07:23:54;17.40;;;8.35;;
32768;SDS011;23049;54.304;8.826;2022-08-19T07:26:25;18.05;;;10.05;;
32768;SDS011;23049;54.304;8.826;2022-08-19T07:28:53;18.50;;;10.23;;
32768;SDS011;23049;54.304;8.826;2022-08-19T07:31:20;20.60;;;8.98;;
32768;SDS011;23049;54.304;8.826;2022-08-19T07:33:48;16.95;;;9.93;;
32768;SDS011;23049;54.304;8.826;2022-08-19T07:36:16;20.30;;;11.02;;
32768;SDS011;23049;54.304;8.826;2022-08-19T07:38:46;16.95;;;10.10;;
32768;SDS011;23049;54.304;8.826;2022-08-19T07:41:14;17.98;;;10.00;;
32768;SDS011;23049;54.304;8.826;2022-08-19T07:43:42;21.05;;;10.55;;
32768;SDS011;23049;54.304;8.826;2022-08-19T07:46:09;20.75;;;10.15;;
32768;SDS011;23049;54.304;8.826;2022-08-19T07:48:36;18.48;;;10.82;;
32768;SDS011;23049;54.304;8.826;2022-08-19T07:51:03;21.30;;;10.25;;
32768;SDS011;23049;54.304;8.826;2022-08-19T07:53:30;17.83;;;9.50;;
32768;SDS011;23049;54.304;8.826;2022-08-19T07:55:57;17.05;;;8.73;;
32768;SDS011;23049;54.304;8.826;2022-08-19T07:58:29;12.18;;;8.40;;
32768;SDS011;23049;54.304;8.826;2022-08-19T08:01:00;16.10;;;9.77;;
32768;SDS011;23049;54.304;8.826;2022-08-19T08:03:26;14.32;;;8.45;;
32768;SDS011;23049;54.304;8.826;2022-08-19T08:06:12;11.68;;;8.10;;
32768;SDS011;23049;54.304;8.826;2022-08-19T08:08:57;19.17;;;8.90;;
32768;SDS011;23049;54.304;8.826;2022-08-19T08:11:44;13.75;;;8.15;;
32768;SDS011;23049;54.304;8.826;2022-08-19T08:16:40;13.63;;;8.55;;
32768;SDS011;23049;54.304;8.826;2022-08-19T08:19:07;15.23;;;9.10;;
32768;SDS011;23049;54.304;8.826;2022-08-19T08:21:33;10.10;;;8.32;;
32768;SDS011;23049;54.304;8.826;2022-08-19T08:23:59;19.60;;;14.45;;
32768;SDS011;23049;54.304;8.826;2022-08-19T08:26:25;21.25;;;14.82;;
32768;SDS011;23049;54.304;8.826;2022-08-19T08:28:51;21.80;;;13.43;;
32768;SDS011;23049;54.304;8.826;2022-08-19T08:31:17;19.40;;;13.85;;
32768;SDS011;23049;54.304;8.826;2022-08-19T08:33:44;16.73;;;11.85;;
32768;SDS011;23049;54.304;8.826;2022-08-19T08:36:11;19.05;;;12.32;;
32768;SDS011;23049;54.304;8.826;2022-08-19T08:38:41;16.40;;;12.93;;
32768;SDS011;23049;54.304;8.826;2022-08-19T08:41:22;19.23;;;10.45;;
32768;SDS011;23049;54.304;8.826;2022-08-19T08:44:10;19.45;;;11.45;;
32768;SDS011;23049;54.304;8.826;2022-08-19T08:46:51;16.98;;;11.38;;
32768;SDS011;23049;54.304;8.826;2022-08-19T08:52:04;23.08;;;12.52;;
32768;SDS011;23049;54.304;8.826;2022-08-19T08:54:44;17.63;;;11.88;;
32768;SDS011;23049;54.304;8.826;2022-08-19T08:57:20;16.67;;;12.60;;
32768;SDS011;23049;54.304;8.826;2022-08-19T08:59:57;18.83;;;13.60;;
32768;SDS011;23049;54.304;8.826;2022-08-19T09:02:25;16.48;;;12.13;;
32768;SDS011;23049;54.304;8.826;2022-08-19T09:04:51;14.48;;;11.45;;
32768;SDS011;23049;54.304;8.826;2022-08-19T09:10:06;20.08;;;10.10;;
32768;SDS011;23049;54.304;8.826;2022-08-19T09:12:54;11.07;;;8.48;;
32768;SDS011;23049;54.304;8.826;2022-08-19T09:15:38;9.73;;;6.43;;
32768;SDS011;23049;54.304;8.826;2022-08-19T09:18:10;12.27;;;7.15;;
32768;SDS011;23049;54.304;8.826;2022-08-19T09:20:36;7.75;;;5.55;;
32768;SDS011;23049;54.304;8.826;2022-08-19T09:23:02;8.73;;;5.80;;
32768;SDS011;23049;54.304;8.826;2022-08-19T09:25:29;10.10;;;6.70;;
32768;SDS011;23049;54.304;8.826;2022-08-19T09:27:56;7.32;;;6.50;;
32768;SDS011;23049;54.304;8.826;2022-08-19T09:30:23;9.55;;;6.43;;
32768;SDS011;23049;54.304;8.826;2022-08-19T09:32:52;8.52;;;6.28;;
32768;SDS011;23049;54.304;8.826;2022-08-19T09:35:23;9.55;;;6.80;;
32768;SDS011;23049;54.304;8.826;2022-08-19T09:37:51;8.88;;;5.68;;
32768;SDS011;23049;54.304;8.826;2022-08-19T09:40:18;8.65;;;6.45;;
32768;SDS011;23049;54.304;8.826;2022-08-19T09:42:45;14.27;;;8.30;;
32768;SDS011;23049;54.304;8.826;2022-08-19T09:45:12;9.70;;;6.10;;
32768;SDS011;23049;54.304;8.826;2022-08-19T09:47:39;14.23;;;6.97;;
32768;SDS011;23049;54.304;8.826;2022-08-19T09:50:08;9.52;;;6.75;;
32768;SDS011;23049;54.304;8.826;2022-08-19T09:52:35;8.00;;;5.57;;
32768;SDS011;23049;54.304;8.826;2022-08-19T09:55:05;7.95;;;5.68;;
32768;SDS011;23049;54.304;8.826;2022-08-19T09:57:32;7.45;;;5.68;;
32768;SDS011;23049;54.304;8.826;2022-08-19T09:59:58;7.10;;;5.15;;
32768;SDS011;23049;54.304;8.826;2022-08-19T10:02:23;8.23;;;5.45;;
32768;SDS011;23049;54.304;8.826;2022-08-19T10:04:50;12.23;;;6.35;;
32768;SDS011;23049;54.304;8.826;2022-08-19T10:07:34;10.43;;;5.75;;
32768;SDS011;23049;54.304;8.826;2022-08-19T10:10:00;6.90;;;5.32;;
32768;SDS011;23049;54.304;8.826;2022-08-19T10:12:28;11.40;;;5.40;;
32768;SDS011;23049;54.304;8.826;2022-08-19T10:14:54;6.13;;;4.65;;
32768;SDS011;23049;54.304;8.826;2022-08-19T10:17:20;5.85;;;4.80;;
32768;SDS011;23049;54.304;8.826;2022-08-19T10:19:46;7.95;;;5.50;;
32768;SDS011;23049;54.304;8.826;2022-08-19T10:22:12;10.37;;;5.23;;
32768;SDS011;23049;54.304;8.826;2022-08-19T10:24:38;7.25;;;5.15;;
32768;SDS011;23049;54.304;8.826;2022-08-19T10:27:04;11.52;;;5.88;;
32768;SDS011;23049;54.304;8.826;2022-08-19T10:29:30;9.95;;;4.97;;
32768;SDS011;23049;54.304;8.826;2022-08-19T10:31:57;8.15;;;4.93;;
32768;SDS011;23049;54.304;8.826;2022-08-19T10:34:25;5.75;;;4.43;;
32768;SDS011;23049;54.304;8.826;2022-08-19T10:36:51;13.13;;;5.82;;
32768;SDS011;23049;54.304;8.826;2022-08-19T10:39:16;7.88;;;5.22;;
32768;SDS011;23049;54.304;8.826;2022-08-19T10:41:42;10.18;;;4.82;;
32768;SDS011;23049;54.304;8.826;2022-08-19T10:44:09;10.38;;;4.95;;
32768;SDS011;23049;54.304;8.826;2022-08-19T10:46:38;8.90;;;5.55;;
32768;SDS011;23049;54.304;8.826;2022-08-19T10:49:07;9.57;;;5.65;;
32768;SDS011;23049;54.304;8.826;2022-08-19T10:51:34;6.15;;;4.55;;
32768;SDS011;23049;54.304;8.826;2022-08-19T10:54:19;8.55;;;5.63;;
32768;SDS011;23049;54.304;8.826;2022-08-19T10:56:45;9.77;;;6.50;;
32768;SDS011;23049;54.304;8.826;2022-08-19T10:59:19;13.45;;;6.60;;
32768;SDS011;23049;54.304;8.826;2022-08-19T11:01:50;8.10;;;5.53;;
32768;SDS011;23049;54.304;8.826;2022-08-19T11:04:16;5.45;;;4.45;;
32768;SDS011;23049;54.304;8.826;2022-08-19T11:06:45;7.55;;;4.45;;
32768;SDS011;23049;54.304;8.826;2022-08-19T11:09:13;5.95;;;4.10;;
32768;SDS011;23049;54.304;8.826;2022-08-19T11:11:41;5.72;;;5.00;;
32768;SDS011;23049;54.304;8.826;2022-08-19T11:14:08;7.18;;;4.68;;
32768;SDS011;23049;54.304;8.826;2022-08-19T11:16:36;12.32;;;5.25;;
32768;SDS011;23049;54.304;8.826;2022-08-19T11:19:03;9.85;;;5.60;;
32768;SDS011;23049;54.304;8.826;2022-08-19T11:21:36;6.57;;;5.30;;
32768;SDS011;23049;54.304;8.826;2022-08-19T11:24:05;8.52;;;4.40;;
32768;SDS011;23049;54.304;8.826;2022-08-19T11:26:33;4.00;;;3.35;;
32768;SDS011;23049;54.304;8.826;2022-08-19T11:29:00;14.10;;;4.43;;
32768;SDS011;23049;54.304;8.826;2022-08-19T11:31:27;6.50;;;3.72;;
32768;SDS011;23049;54.304;8.826;2022-08-19T11:33:56;9.43;;;5.22;;
32768;SDS011;23049;54.304;8.826;2022-08-19T11:36:22;8.40;;;4.95;;
32768;SDS011;23049;54.304;8.826;2022-08-19T11:38:48;10.68;;;5.90;;
32768;SDS011;23049;54.304;8.826;2022-08-19T11:41:15;12.77;;;5.32;;
32768;SDS011;23049;54.304;8.826;2022-08-19T11:43:42;15.65;;;6.50;;
32768;SDS011;23049;54.304;8.826;2022-08-19T11:46:09;11.25;;;6.43;;
32768;SDS011;23049;54.304;8.826;2022-08-19T11:48:36;10.55;;;6.00;;
32768;SDS011;23049;54.304;8.826;2022-08-19T11:51:07;11.95;;;5.32;;
32768;SDS011;23049;54.304;8.826;2022-08-19T11:56:01;6.25;;;4.28;;
32768;SDS011;23049;54.304;8.826;2022-08-19T11:58:27;16.75;;;5.72;;
32768;SDS011;23049;54.304;8.826;2022-08-19T12:00:56;8.13;;;4.90;;
32768;SDS011;23049;54.304;8.826;2022-08-19T12:03:22;10.10;;;4.53;;
32768;SDS011;23049;54.304;8.826;2022-08-19T12:05:48;6.93;;;3.83;;
32768;SDS011;23049;54.304;8.826;2022-08-19T12:10:48;4.30;;;3.90;;
32768;SDS011;23049;54.304;8.826;2022-08-19T12:13:14;7.82;;;5.10;;
32768;SDS011;23049;54.304;8.826;2022-08-19T12:15:43;8.48;;;4.72;;
32768;SDS011;23049;54.304;8.826;2022-08-19T12:18:10;9.23;;;4.40;;
32768;SDS011;23049;54.304;8.826;2022-08-19T12:20:39;7.30;;;4.95;;
32768;SDS011;23049;54.304;8.826;2022-08-19T12:23:06;7.78;;;4.97;;
32768;SDS011;23049;54.304;8.826;2022-08-19T12:25:34;7.18;;;4.95;;
32768;SDS011;23049;54.304;8.826;2022-08-19T12:28:00;5.93;;;4.80;;
32768;SDS011;23049;54.304;8.826;2022-08-19T12:30:26;6.28;;;5.03;;
32768;SDS011;23049;54.304;8.826;2022-08-19T12:32:52;11.98;;;5.20;;
32768;SDS011;23049;54.304;8.826;2022-08-19T12:35:18;6.00;;;3.90;;
32768;SDS011;23049;54.304;8.826;2022-08-19T12:37:47;9.40;;;4.60;;
32768;SDS011;23049;54.304;8.826;2022-08-19T12:40:14;6.82;;;4.10;;
32768;SDS011;23049;54.304;8.826;2022-08-19T12:42:41;5.60;;;4.85;;
32768;SDS011;23049;54.304;8.826;2022-08-19T12:45:08;8.88;;;4.72;;
32768;SDS011;23049;54.304;8.826;2022-08-19T12:47:38;6.23;;;4.70;;
32768;SDS011;23049;54.304;8.826;2022-08-19T12:50:04;7.50;;;4.60;;
32768;SDS011;23049;54.304;8.826;2022-08-19T12:52:34;6.75;;;4.10;;
32768;SDS011;23049;54.304;8.826;2022-08-19T12:55:04;4.93;;;4.05;;
32768;SDS011;23049;54.304;8.826;2022-08-19T12:57:31;7.47;;;4.00;;
32768;SDS011;23049;54.304;8.826;2022-08-19T13:00:03;5.22;;;3.75;;
32768;SDS011;23049;54.304;8.826;2022-08-19T13:02:37;5.97;;;3.95;;
32768;SDS011;23049;54.304;8.826;2022-08-19T13:05:03;9.50;;;4.00;;
32768;SDS011;23049;54.304;8.826;2022-08-19T13:07:31;6.22;;;3.88;;
32768;SDS011;23049;54.304;8.826;2022-08-19T13:09:57;10.60;;;3.60;;
32768;SDS011;23049;54.304;8.826;2022-08-19T13:12:23;9.50;;;3.63;;
32768;SDS011;23049;54.304;8.826;2022-08-19T13:14:49;5.57;;;3.08;;
32768;SDS011;23049;54.304;8.826;2022-08-19T13:17:16;7.28;;;3.22;;
32768;SDS011;23049;54.304;8.826;2022-08-19T13:19:41;8.23;;;3.95;;
32768;SDS011;23049;54.304;8.826;2022-08-19T13:22:07;12.23;;;3.65;;
32768;SDS011;23049;54.304;8.826;2022-08-19T13:24:33;4.70;;;3.78;;
32768;SDS011;23049;54.304;8.826;2022-08-19T13:26:59;5.22;;;3.10;;
32768;SDS011;23049;54.304;8.826;2022-08-19T13:29:25;6.97;;;3.35;;
32768;SDS011;23049;54.304;8.826;2022-08-19T13:32:10;7.68;;;3.60;;
32768;SDS011;23049;54.304;8.826;2022-08-19T13:34:54;4.25;;;3.47;;
32768;SDS011;23049;54.304;8.826;2022-08-19T13:37:19;3.13;;;2.83;;
32768;SDS011;23049;54.304;8.826;2022-08-19T13:40:05;5.60;;;3.08;;
32768;SDS011;23049;54.304;8.826;2022-08-19T13:42:41;5.10;;;3.08;;
32768;SDS011;23049;54.304;8.826;2022-08-19T13:45:07;4.40;;;3.08;;
32768;SDS011;23049;54.304;8.826;2022-08-19T13:47:35;4.38;;;3.00;;
32768;SDS011;23049;54.304;8.826;2022-08-19T13:50:11;4.65;;;2.65;;
32768;SDS011;23049;54.304;8.826;2022-08-19T13:52:39;3.45;;;2.75;;
32768;SDS011;23049;54.304;8.826;2022-08-19T13:55:05;3.80;;;2.22;;
32768;SDS011;23049;54.304;8.826;2022-08-19T13:57:32;3.05;;;2.30;;
32768;SDS011;23049;54.304;8.826;2022-08-19T13:59:57;3.92;;;2.30;;
32768;SDS011;23049;54.304;8.826;2022-08-19T14:02:24;3.72;;;2.42;;
32768;SDS011;23049;54.304;8.826;2022-08-19T14:04:51;4.00;;;2.20;;
32768;SDS011;23049;54.304;8.826;2022-08-19T14:07:17;4.03;;;2.30;;
32768;SDS011;23049;54.304;8.826;2022-08-19T14:09:42;2.78;;;2.10;;
32768;SDS011;23049;54.304;8.826;2022-08-19T14:12:08;3.05;;;1.77;;
32768;SDS011;23049;54.304;8.826;2022-08-19T14:14:37;5.82;;;1.98;;
32768;SDS011;23049;54.304;8.826;2022-08-19T14:17:06;3.55;;;1.77;;
32768;SDS011;23049;54.304;8.826;2022-08-19T14:19:33;3.47;;;1.83;;
32768;SDS011;23049;54.304;8.826;2022-08-19T14:21:59;3.15;;;1.90;;
32768;SDS011;23049;54.304;8.826;2022-08-19T14:24:24;4.30;;;1.70;;
32768;SDS011;23049;54.304;8.826;2022-08-19T14:26:50;6.18;;;2.00;;
32768;SDS011;23049;54.304;8.826;2022-08-19T14:29:16;3.55;;;1.63;;
32768;SDS011;23049;54.304;8.826;2022-08-19T14:31:42;4.43;;;1.73;;
32768;SDS011;23049;54.304;8.826;2022-08-19T14:34:09;3.40;;;1.80;;
32768;SDS011;23049;54.304;8.826;2022-08-19T14:36:36;5.70;;;1.60;;
32768;SDS011;23049;54.304;8.826;2022-08-19T14:39:02;8.05;;;2.22;;
32768;SDS011;23049;54.304;8.826;2022-08-19T14:41:28;6.35;;;1.83;;
32768;SDS011;23049;54.304;8.826;2022-08-19T14:43:55;5.43;;;1.60;;
32768;SDS011;23049;54.304;8.826;2022-08-19T14:46:25;5.57;;;1.40;;
32768;SDS011;23049;54.304;8.826;2022-08-19T14:48:53;5.85;;;1.98;;
32768;SDS011;23049;54.304;8.826;2022-08-19T14:51:20;5.35;;;1.40;;
32768;SDS011;23049;54.304;8.826;2022-08-19T14:53:46;6.30;;;1.77;;
32768;SDS011;23049;54.304;8.826;2022-08-19T14:56:17;4.68;;;1.20;;
32768;SDS011;23049;54.304;8.826;2022-08-19T14:58:46;4.70;;;1.20;;